createdAt,value
2023-03-15T00:01:46.723Z,3.50
2023-03-15T00:06:43.419Z,3.05
2023-03-15T00:09:12.236Z,3.13
2023-03-15T00:11:40.705Z,3.22
2023-03-15T00:14:09.132Z,3.03
2023-03-15T00:16:38.234Z,3.75
2023-03-15T00:19:07.998Z,2.83
2023-03-15T00:21:36.466Z,3.90
2023-03-15T00:24:05.115Z,2.88
2023-03-15T00:26:33.587Z,3.65
2023-03-15T00:29:02.138Z,3.08
2023-03-15T00:31:30.622Z,3.20
2023-03-15T00:33:59.230Z,2.75
2023-03-15T00:36:29.184Z,3.17
2023-03-15T00:38:58.065Z,2.78
2023-03-15T00:41:26.625Z,3.20
2023-03-15T00:43:55.117Z,3.60
2023-03-15T00:46:23.517Z,3.28
2023-03-15T00:48:52.202Z,3.78
2023-03-15T00:51:21.402Z,3.58
2023-03-15T00:53:52.330Z,3.03
2023-03-15T00:56:22.116Z,3.05
2023-03-15T00:58:52.833Z,4.07
2023-03-15T01:01:22.404Z,3.13
2023-03-15T01:03:51.048Z,2.72
2023-03-15T01:06:20.592Z,2.88
2023-03-15T01:08:51.440Z,3.03
2023-03-15T01:11:21.263Z,3.58
2023-03-15T01:13:49.723Z,2.88
2023-03-15T01:16:18.786Z,3.28
2023-03-15T01:18:47.221Z,2.60
2023-03-15T01:21:16.659Z,3.63
2023-03-15T01:23:48.030Z,2.95
2023-03-15T01:26:18.326Z,2.65
2023-03-15T01:31:20.256Z,2.63
2023-03-15T01:33:48.909Z,2.95
2023-03-15T01:36:17.947Z,2.92
2023-03-15T01:38:49.514Z,3.67
2023-03-15T01:41:24.736Z,2.92
2023-03-15T01:43:53.721Z,3.20
2023-03-15T01:46:29.735Z,3.00
2023-03-15T01:49:08.983Z,3.60
2023-03-15T01:51:43.168Z,2.53
2023-03-15T01:54:13.985Z,3.20
2023-03-15T01:56:47.804Z,2.85
2023-03-15T01:59:18.473Z,3.10
2023-03-15T02:01:47.385Z,2.42
2023-03-15T02:04:18.859Z,3.00
2023-03-15T02:06:49.388Z,2.95
2023-03-15T02:09:19.576Z,2.33
2023-03-15T02:11:50.549Z,2.90
2023-03-15T02:14:22.504Z,2.60
2023-03-15T02:16:53.369Z,2.67
2023-03-15T02:19:29.619Z,2.70
2023-03-15T02:22:03.064Z,2.72
2023-03-15T02:24:37.783Z,3.00
2023-03-15T02:27:07.780Z,2.75
2023-03-15T02:29:37.941Z,3.95
2023-03-15T02:32:06.517Z,3.00
2023-03-15T02:34:35.014Z,3.03
2023-03-15T02:37:05.713Z,3.45
2023-03-15T02:39:34.175Z,2.83
2023-03-15T02:42:02.915Z,2.90
2023-03-15T02:44:33.103Z,2.58
2023-03-15T02:47:05.948Z,2.83
2023-03-15T02:49:36.737Z,3.08
2023-03-15T02:52:06.138Z,2.78
2023-03-15T02:54:35.109Z,2.83
2023-03-15T02:57:03.555Z,3.03
2023-03-15T02:59:34.320Z,3.20
2023-03-15T03:02:04.488Z,2.92
2023-03-15T03:04:33.056Z,3.08
2023-03-15T03:07:04.026Z,3.10
2023-03-15T03:09:40.300Z,2.72
2023-03-15T03:12:09.776Z,2.80
2023-03-15T03:14:39.475Z,3.72
2023-03-15T03:17:14.354Z,3.58
2023-03-15T03:19:46.088Z,4.20
2023-03-15T03:22:15.937Z,3.20
2023-03-15T03:24:46.113Z,2.95
2023-03-15T03:27:17.322Z,3.05
2023-03-15T03:29:47.909Z,3.38
2023-03-15T03:32:19.081Z,3.13
2023-03-15T03:34:48.722Z,4.05
2023-03-15T03:37:20.733Z,3.50
2023-03-15T03:40:02.619Z,3.13
2023-03-15T03:42:31.222Z,3.35
2023-03-15T03:44:59.724Z,2.95
2023-03-15T03:47:35.098Z,2.50
2023-03-15T03:50:05.933Z,3.70
2023-03-15T03:52:35.855Z,3.58
2023-03-15T03:55:13.651Z,2.72
2023-03-15T03:57:44.620Z,3.05
2023-03-15T04:00:21.631Z,3.58
2023-03-15T04:02:54.399Z,2.80
2023-03-15T04:05:23.400Z,3.28
2023-03-15T04:07:55.201Z,2.83
2023-03-15T04:10:27.055Z,3.33
2023-03-15T04:12:56.313Z,3.38
2023-03-15T04:15:26.005Z,2.63
2023-03-15T04:17:56.869Z,2.92
2023-03-15T04:20:28.486Z,3.92
2023-03-15T04:22:57.183Z,3.40
2023-03-15T04:25:42.054Z,3.50
2023-03-15T04:31:02.837Z,3.00
2023-03-15T04:33:57.006Z,3.37
2023-03-15T04:36:44.178Z,3.50
2023-03-15T04:39:29.490Z,3.13
2023-03-15T04:42:15.099Z,3.58
2023-03-15T04:45:04.303Z,3.80
2023-03-15T04:47:53.058Z,3.60
2023-03-15T04:50:37.354Z,4.65
2023-03-15T04:53:26.203Z,6.22
2023-03-15T04:55:54.720Z,5.90
2023-03-15T04:58:35.713Z,5.35
2023-03-15T05:01:29.447Z,5.47
2023-03-15T05:04:26.749Z,5.15
2023-03-15T05:07:16.635Z,4.07
2023-03-15T05:10:04.039Z,4.72
2023-03-15T05:12:40.836Z,3.72
2023-03-15T05:15:38.764Z,3.92
2023-03-15T05:18:25.874Z,4.53
2023-03-15T05:21:23.481Z,3.88
2023-03-15T05:24:11.943Z,4.10
2023-03-15T05:26:55.778Z,4.15
2023-03-15T05:29:47.567Z,3.22
2023-03-15T05:32:39.456Z,4.25
2023-03-15T05:35:40.605Z,3.97
2023-03-15T05:38:38.361Z,3.42
2023-03-15T05:41:11.360Z,3.55
2023-03-15T05:44:12.089Z,3.07
2023-03-15T05:47:00.833Z,3.72
2023-03-15T05:49:48.059Z,4.18
2023-03-15T05:52:26.410Z,3.35
2023-03-15T05:55:18.174Z,3.55
2023-03-15T05:57:57.297Z,4.05
2023-03-15T06:00:54.167Z,4.03
2023-03-15T06:03:40.049Z,5.15
2023-03-15T06:06:17.085Z,4.03
2023-03-15T06:08:46.120Z,3.80
2023-03-15T06:11:14.704Z,4.55
2023-03-15T06:13:44.611Z,4.32
2023-03-15T06:16:20.932Z,4.25
2023-03-15T06:18:53.810Z,3.85
2023-03-15T06:21:22.471Z,4.05
2023-03-15T06:23:50.869Z,5.28
2023-03-15T06:26:20.149Z,4.25
2023-03-15T06:28:51.423Z,4.75
2023-03-15T06:31:19.849Z,4.60
2023-03-15T06:33:54.328Z,3.67
2023-03-15T06:36:23.306Z,3.40
2023-03-15T06:38:54.006Z,3.70
2023-03-15T06:41:22.801Z,3.85
2023-03-15T06:43:57.905Z,7.75
2023-03-15T06:46:27.598Z,5.65
2023-03-15T06:48:57.255Z,4.57
2023-03-15T06:51:27.251Z,5.18
2023-03-15T06:53:57.899Z,4.43
2023-03-15T06:56:26.504Z,5.65
2023-03-15T06:58:54.879Z,4.22
2023-03-15T07:01:24.800Z,4.93
2023-03-15T07:03:53.782Z,5.50
2023-03-15T07:06:22.368Z,4.60
2023-03-15T07:08:53.440Z,4.47
2023-03-15T07:11:22.042Z,5.90
2023-03-15T07:13:50.626Z,4.32
2023-03-15T07:16:19.086Z,4.82
2023-03-15T07:18:50.316Z,5.22
2023-03-15T07:21:18.705Z,4.10
2023-03-15T07:23:47.200Z,5.22
2023-03-15T07:26:15.787Z,4.68
2023-03-15T07:28:44.749Z,4.40
2023-03-15T07:31:13.324Z,3.95
2023-03-15T07:33:44.261Z,3.60
2023-03-15T07:36:14.049Z,3.33
2023-03-15T07:38:43.354Z,3.80
2023-03-15T07:41:13.500Z,4.70
2023-03-15T07:43:50.479Z,4.18
2023-03-15T07:46:20.050Z,5.38
2023-03-15T07:48:48.575Z,12.88
2023-03-15T07:51:18.460Z,9.77
2023-03-15T07:53:48.168Z,7.60
2023-03-15T07:56:16.764Z,5.45
2023-03-15T07:58:45.511Z,4.80
2023-03-15T08:01:14.021Z,5.38
2023-03-15T08:03:42.562Z,5.40
2023-03-15T08:06:11.231Z,5.05
2023-03-15T08:08:41.423Z,5.07
2023-03-15T08:11:09.786Z,4.65
2023-03-15T08:13:38.196Z,5.05
2023-03-15T08:16:07.009Z,5.32
2023-03-15T08:18:35.610Z,5.95
2023-03-15T08:21:04.262Z,5.40
2023-03-15T08:23:35.226Z,5.28
2023-03-15T08:26:05.381Z,6.28
2023-03-15T08:28:33.996Z,5.13
2023-03-15T08:31:02.511Z,6.40
2023-03-15T08:33:32.850Z,7.13
2023-03-15T08:36:01.356Z,6.45
2023-03-15T08:38:29.831Z,5.85
2023-03-15T08:40:58.440Z,5.53
2023-03-15T08:43:28.332Z,6.95
2023-03-15T08:46:01.212Z,6.50
2023-03-15T08:48:31.572Z,6.75
2023-03-15T08:51:04.111Z,5.68
2023-03-15T08:53:32.770Z,5.43
2023-03-15T08:56:01.706Z,8.63
2023-03-15T08:58:31.596Z,7.45
2023-03-15T09:01:00.220Z,7.00
2023-03-15T09:03:29.255Z,5.80
2023-03-15T09:05:58.734Z,5.95
2023-03-15T09:08:29.607Z,6.63
2023-03-15T09:10:58.988Z,5.53
2023-03-15T09:13:31.363Z,5.20
2023-03-15T09:16:00.045Z,5.53
2023-03-15T09:18:28.443Z,6.03
2023-03-15T09:20:59.368Z,6.28
2023-03-15T09:23:27.985Z,6.28
2023-03-15T09:25:56.599Z,5.55
2023-03-15T09:28:26.760Z,5.10
2023-03-15T09:30:58.866Z,5.00
2023-03-15T09:33:28.370Z,6.20
2023-03-15T09:35:56.957Z,6.03
2023-03-15T09:38:26.761Z,5.28
2023-03-15T09:40:58.581Z,5.75
2023-03-15T09:43:44.186Z,5.47
2023-03-15T09:46:20.735Z,4.60
2023-03-15T09:48:52.403Z,4.60
2023-03-15T09:51:26.018Z,4.57
2023-03-15T09:53:56.430Z,4.82
2023-03-15T09:56:27.182Z,4.55
2023-03-15T09:58:58.269Z,4.47
2023-03-15T10:01:31.203Z,4.53
2023-03-15T10:04:00.498Z,4.60
2023-03-15T10:06:36.565Z,4.38
2023-03-15T10:09:12.468Z,4.45
2023-03-15T10:11:45.254Z,3.92
2023-03-15T10:16:44.568Z,5.30
2023-03-15T10:19:19.214Z,4.32
2023-03-15T10:21:53.886Z,4.30
2023-03-15T10:24:26.026Z,4.20
2023-03-15T10:26:55.542Z,4.72
2023-03-15T10:29:26.731Z,4.68
2023-03-15T10:31:56.902Z,4.80
2023-03-15T10:34:26.908Z,5.07
2023-03-15T10:36:55.713Z,4.57
2023-03-15T10:39:24.814Z,4.50
2023-03-15T10:41:53.577Z,4.18
2023-03-15T10:44:23.284Z,3.70
2023-03-15T10:47:21.847Z,3.50
2023-03-15T10:49:51.645Z,3.50
2023-03-15T10:52:31.706Z,4.13
2023-03-15T10:55:04.738Z,3.85
2023-03-15T10:57:37.032Z,3.75
2023-03-15T11:00:10.174Z,3.50
2023-03-15T11:02:42.545Z,4.70
2023-03-15T13:21:33.610Z,3.47
2023-03-15T13:24:03.001Z,2.50
2023-03-15T13:26:43.363Z,3.13
2023-03-15T13:29:17.391Z,2.55
2023-03-15T13:31:46.137Z,3.03
2023-03-15T13:37:05.502Z,2.00
2023-03-15T13:39:34.836Z,2.88
2023-03-15T13:42:04.093Z,2.53
2023-03-15T13:44:33.263Z,2.53
2023-03-15T13:47:02.291Z,2.30
2023-03-15T13:49:32.950Z,2.70
2023-03-15T13:52:04.024Z,2.90
2023-03-15T13:54:35.030Z,2.67
2023-03-15T13:57:06.085Z,2.95
2023-03-15T13:59:39.294Z,3.15
2023-03-15T14:02:09.176Z,2.55
2023-03-15T14:04:38.796Z,3.10
2023-03-15T14:07:12.212Z,2.83
2023-03-15T14:09:42.050Z,3.10
2023-03-15T14:12:19.177Z,2.80
2023-03-15T14:14:50.814Z,2.67
2023-03-15T14:17:21.290Z,3.25
2023-03-15T14:19:54.231Z,3.35
2023-03-15T14:22:23.077Z,2.50
2023-03-15T14:24:53.758Z,5.88
2023-03-15T14:27:23.667Z,2.70
2023-03-15T14:29:53.534Z,2.35
2023-03-15T14:32:26.826Z,3.55
2023-03-15T14:35:00.971Z,3.70
2023-03-15T14:37:31.802Z,3.50
2023-03-15T14:40:15.242Z,3.33
2023-03-15T14:42:43.800Z,3.42
2023-03-15T14:45:12.420Z,2.70
2023-03-15T14:47:55.362Z,3.10
2023-03-15T14:50:25.286Z,3.08
2023-03-15T14:52:54.386Z,5.70
2023-03-15T14:55:25.448Z,2.38
2023-03-15T14:57:54.194Z,3.20
2023-03-15T15:00:23.043Z,3.90
2023-03-15T15:02:53.591Z,5.22
2023-03-15T15:05:25.033Z,3.10
2023-03-15T15:07:54.869Z,2.30
2023-03-15T15:10:25.311Z,2.40
2023-03-15T15:13:05.615Z,3.53
2023-03-15T15:15:53.623Z,2.60
2023-03-15T15:18:23.645Z,2.40
2023-03-15T15:20:55.278Z,2.65
2023-03-15T15:23:25.072Z,2.55
2023-03-15T15:25:56.068Z,2.97
2023-03-15T15:28:34.804Z,3.22
2023-03-15T15:31:05.699Z,4.03
2023-03-15T15:33:34.343Z,3.60
2023-03-15T15:36:03.315Z,5.40
2023-03-15T15:38:34.858Z,4.82
2023-03-15T15:41:04.865Z,3.05
2023-03-15T15:43:33.828Z,3.65
2023-03-15T15:46:02.983Z,4.78
2023-03-15T15:48:31.551Z,5.93
2023-03-15T15:51:00.193Z,5.40
2023-03-15T15:53:30.075Z,5.90
2023-03-15T15:55:58.900Z,6.10
2023-03-15T15:58:28.785Z,4.53
2023-03-15T16:00:57.202Z,3.70
2023-03-15T16:03:28.561Z,3.38
2023-03-15T16:05:57.240Z,2.80
2023-03-15T16:08:26.948Z,3.53
2023-03-15T16:10:55.913Z,3.75
2023-03-15T16:13:24.974Z,3.20
2023-03-15T16:15:55.020Z,2.85
2023-03-15T16:18:23.757Z,2.40
2023-03-15T16:20:52.503Z,2.25
2023-03-15T16:23:22.593Z,2.85
2023-03-15T16:25:52.014Z,2.60
2023-03-15T16:28:20.720Z,2.60
2023-03-15T16:30:49.516Z,2.13
2023-03-15T16:33:21.169Z,2.40
2023-03-15T16:35:53.183Z,3.35
2023-03-15T16:38:26.208Z,4.10
2023-03-15T16:43:22.857Z,3.53
2023-03-15T16:45:51.651Z,4.53
2023-03-15T16:48:21.952Z,3.47
2023-03-15T16:50:51.751Z,3.60
2023-03-15T16:53:21.061Z,4.70
2023-03-15T16:55:49.470Z,3.60
2023-03-15T16:58:19.967Z,2.92
2023-03-15T17:00:48.705Z,4.03
2023-03-15T17:03:18.295Z,5.60
2023-03-15T17:05:48.897Z,4.88
2023-03-15T17:08:19.813Z,6.00
2023-03-15T17:10:49.364Z,5.22
2023-03-15T17:13:19.360Z,6.22
2023-03-15T17:15:48.091Z,5.63
2023-03-15T17:18:18.536Z,6.20
2023-03-15T17:20:49.078Z,4.82
2023-03-15T17:23:17.856Z,6.00
2023-03-15T17:25:46.402Z,6.10
2023-03-15T17:28:14.946Z,5.50
2023-03-15T17:30:43.451Z,7.00
2023-03-15T17:33:12.066Z,4.90
2023-03-15T17:35:45.090Z,6.30
2023-03-15T17:38:21.831Z,8.00
2023-03-15T17:40:52.208Z,6.80
2023-03-15T17:43:21.371Z,6.78
2023-03-15T17:45:49.985Z,5.20
2023-03-15T17:48:18.496Z,5.80
2023-03-15T17:50:47.259Z,5.97
2023-03-15T17:53:18.599Z,5.60
2023-03-15T17:55:47.906Z,6.43
2023-03-15T17:58:19.495Z,9.32
2023-03-15T18:00:49.183Z,9.85
2023-03-15T18:03:18.643Z,11.20
2023-03-15T18:05:47.892Z,11.98
2023-03-15T18:08:19.159Z,10.25
2023-03-15T18:10:48.849Z,8.18
2023-03-15T18:13:18.410Z,8.85
2023-03-15T18:15:47.283Z,8.18
2023-03-15T18:18:16.012Z,9.30
2023-03-15T18:20:45.284Z,9.93
2023-03-15T18:23:14.788Z,10.50
2023-03-15T18:25:44.915Z,11.82
2023-03-15T18:28:13.550Z,9.65
2023-03-15T18:30:43.293Z,7.65
2023-03-15T18:33:12.194Z,8.95
2023-03-15T18:35:41.097Z,7.57
2023-03-15T18:38:09.820Z,7.32
2023-03-15T18:40:39.117Z,6.70
2023-03-15T18:43:08.982Z,5.60
2023-03-15T18:45:37.585Z,5.93
2023-03-15T18:48:06.207Z,11.45
2023-03-15T18:50:35.369Z,9.82
2023-03-15T18:53:06.179Z,7.53
2023-03-15T18:55:37.257Z,9.35
2023-03-15T18:58:08.942Z,7.55
2023-03-15T19:00:39.182Z,9.87
2023-03-15T19:03:08.392Z,10.13
2023-03-15T19:05:37.666Z,5.13
2023-03-15T19:08:06.535Z,5.47
2023-03-15T19:10:35.116Z,5.93
2023-03-15T19:13:04.838Z,6.10
2023-03-15T19:15:33.506Z,7.00
2023-03-15T19:18:03.584Z,9.00
2023-03-15T19:20:32.488Z,7.40
2023-03-15T19:23:03.352Z,10.75
2023-03-15T19:25:31.895Z,9.35
2023-03-15T19:28:00.551Z,10.85
2023-03-15T19:30:29.045Z,11.73
2023-03-15T19:32:57.732Z,9.60
2023-03-15T19:35:27.847Z,10.13
2023-03-15T19:37:57.067Z,7.78
2023-03-15T19:40:26.120Z,7.47
2023-03-15T19:42:54.690Z,7.00
2023-03-15T19:45:23.198Z,5.82
2023-03-15T19:47:51.750Z,6.95
2023-03-15T19:50:20.638Z,7.75
2023-03-15T19:52:50.437Z,5.72
2023-03-15T19:55:20.218Z,4.93
2023-03-15T19:57:49.157Z,5.25
2023-03-15T20:00:19.543Z,5.45
2023-03-15T20:02:48.502Z,5.50
2023-03-15T20:05:18.327Z,5.78
2023-03-15T20:07:48.305Z,6.55
2023-03-15T20:10:19.358Z,7.07
2023-03-15T20:12:48.274Z,7.22
2023-03-15T20:15:17.700Z,7.78
2023-03-15T20:17:48.364Z,8.30
2023-03-15T20:20:17.054Z,7.93
2023-03-15T20:22:46.638Z,9.23
2023-03-15T20:25:15.721Z,9.05
2023-03-15T20:27:45.720Z,11.38
2023-03-15T20:30:15.322Z,8.88
2023-03-15T20:32:44.412Z,8.32
2023-03-15T20:35:13.919Z,11.75
2023-03-15T20:37:42.958Z,10.48
2023-03-15T20:40:12.751Z,7.80
2023-03-15T20:42:41.371Z,7.85
2023-03-15T20:45:12.459Z,7.85
2023-03-15T20:47:41.358Z,6.78
2023-03-15T20:50:10.924Z,8.38
2023-03-15T20:52:39.392Z,9.75
2023-03-15T20:55:08.427Z,7.32
2023-03-15T20:57:37.390Z,6.20
2023-03-15T21:00:12.194Z,5.60
2023-03-15T21:02:42.387Z,5.55
2023-03-15T21:05:12.987Z,6.68
2023-03-15T21:07:42.390Z,5.38
2023-03-15T21:10:13.655Z,6.28
2023-03-15T21:12:42.128Z,5.20
2023-03-15T21:15:15.307Z,5.50
2023-03-15T21:17:45.120Z,6.28
2023-03-15T21:20:15.557Z,5.88
2023-03-15T21:22:44.219Z,5.82
2023-03-15T21:25:13.394Z,6.00
2023-03-15T21:27:42.536Z,6.38
2023-03-15T21:30:13.928Z,6.57
2023-03-15T21:32:42.944Z,6.22
2023-03-15T21:35:13.305Z,6.55
2023-03-15T21:37:41.877Z,8.10
2023-03-15T21:40:11.396Z,7.75
2023-03-15T21:42:39.972Z,10.05
2023-03-15T21:45:09.132Z,5.60
2023-03-15T21:47:37.885Z,6.10
2023-03-15T21:50:09.710Z,5.10
2023-03-15T21:52:39.620Z,4.97
2023-03-15T21:55:08.804Z,4.72
2023-03-15T21:57:37.402Z,5.68
2023-03-15T22:00:11.635Z,6.22
2023-03-15T22:02:41.017Z,4.80
2023-03-15T22:05:11.058Z,5.95
2023-03-15T22:07:43.936Z,5.78
2023-03-15T22:10:14.475Z,5.75
2023-03-15T22:12:45.416Z,5.38
2023-03-15T22:15:14.522Z,5.75
2023-03-15T22:17:45.134Z,5.60
2023-03-15T22:20:16.915Z,5.57
2023-03-15T22:22:47.240Z,5.20
2023-03-15T22:25:16.011Z,6.18
2023-03-15T22:27:44.662Z,4.72
2023-03-15T22:30:14.503Z,5.15
2023-03-15T22:32:44.485Z,4.72
2023-03-15T22:35:13.356Z,4.70
2023-03-15T22:37:41.979Z,5.40
2023-03-15T22:40:15.558Z,4.35
2023-03-15T22:42:44.050Z,5.00
2023-03-15T22:45:12.785Z,5.20
2023-03-15T22:47:41.525Z,6.13
2023-03-15T22:50:10.711Z,5.65
2023-03-15T22:52:41.765Z,5.68
2023-03-15T22:55:12.523Z,6.15
2023-03-15T22:57:40.965Z,5.80
2023-03-15T23:00:13.617Z,6.25
2023-03-15T23:05:11.701Z,6.05
2023-03-15T23:07:41.603Z,6.25
2023-03-15T23:10:10.566Z,6.00
2023-03-15T23:12:41.119Z,6.72
2023-03-15T23:15:10.425Z,6.47
2023-03-15T23:17:38.997Z,6.28
2023-03-15T23:20:09.095Z,6.32
2023-03-15T23:22:38.072Z,7.10
2023-03-15T23:25:08.684Z,6.03
2023-03-15T23:27:37.135Z,6.03
2023-03-15T23:30:07.629Z,5.55
2023-03-15T23:32:36.978Z,5.95
2023-03-15T23:35:06.245Z,5.95
2023-03-15T23:37:34.965Z,6.00
2023-03-15T23:40:05.778Z,5.90
2023-03-15T23:42:35.606Z,5.53
2023-03-15T23:45:05.787Z,6.47
2023-03-15T23:47:35.766Z,5.82
2023-03-15T23:50:04.332Z,6.47
2023-03-15T23:52:32.804Z,4.72
2023-03-15T23:55:01.278Z,5.22
2023-03-15T23:57:32.410Z,4.85
